createdAt,value
2022-10-05T00:00:27.740Z,88296.50
2022-10-05T00:02:56.025Z,88289.41
2022-10-05T00:05:33.578Z,88294.31
2022-10-05T00:08:14.225Z,88295.38
2022-10-05T00:10:43.304Z,88288.97
2022-10-05T00:13:31.553Z,88290.81
2022-10-05T00:16:12.827Z,88301.31
2022-10-05T00:18:40.556Z,88295.94
2022-10-05T00:21:21.246Z,88296.28
2022-10-05T00:23:49.414Z,88295.06
2022-10-05T00:26:26.982Z,88294.00
2022-10-05T00:28:55.171Z,88299.25
2022-10-05T00:31:32.534Z,88289.84
2022-10-05T00:33:59.755Z,88296.94
2022-10-05T00:36:26.952Z,88296.94
2022-10-05T00:38:55.251Z,88297.91
2022-10-05T00:41:50.783Z,88306.47
2022-10-05T00:44:41.082Z,88304.25
2022-10-05T00:47:55.295Z,88306.44
2022-10-05T00:50:42.622Z,88307.63
2022-10-05T00:53:36.527Z,88301.41
2022-10-05T00:56:16.587Z,88300.66
2022-10-05T00:59:30.117Z,88289.19
2022-10-05T01:02:09.190Z,88290.91
2022-10-05T01:04:53.270Z,88292.47
2022-10-05T01:08:00.859Z,88291.69
2022-10-05T01:10:54.608Z,88295.50
2022-10-05T01:14:06.452Z,88295.72
2022-10-05T01:16:55.018Z,88293.31
2022-10-05T01:20:02.163Z,88293.31
2022-10-05T01:22:32.163Z,88291.78
2022-10-05T01:25:40.357Z,88292.44
2022-10-05T01:28:58.340Z,88295.72
2022-10-05T01:31:48.879Z,88300.84
2022-10-05T01:34:30.866Z,88307.16
2022-10-05T01:37:20.514Z,88304.09
2022-10-05T01:40:16.868Z,88307.38
2022-10-05T01:43:20.869Z,88312.16
2022-10-05T01:46:32.014Z,88297.44
2022-10-05T01:49:44.938Z,88288.69
2022-10-05T01:52:42.948Z,88292.38
2022-10-05T01:55:29.734Z,88296.88
2022-10-05T01:58:47.408Z,88295.78
2022-10-05T02:01:58.739Z,88305.03
2022-10-05T02:05:01.102Z,88302.75
2022-10-05T02:07:48.102Z,88298.28
2022-10-05T02:10:39.566Z,88292.81
2022-10-05T02:13:33.127Z,88294.03
2022-10-05T02:16:35.869Z,88292.53
2022-10-05T02:19:32.070Z,88293.06
2022-10-05T02:22:07.565Z,88289.34
2022-10-05T02:24:55.619Z,88291.94
2022-10-05T02:27:30.975Z,88287.69
2022-10-05T02:30:12.805Z,88290.31
2022-10-05T02:33:11.967Z,88284.53
2022-10-05T02:35:39.279Z,88285.16
2022-10-05T02:38:41.103Z,88287.34
2022-10-05T02:41:28.115Z,88289.38
2022-10-05T02:44:30.598Z,88291.91
2022-10-05T02:47:23.406Z,88277.16
2022-10-05T02:50:35.004Z,88290.56
2022-10-05T02:53:40.487Z,88283.81
2022-10-05T02:56:43.711Z,88284.44
2022-10-05T02:59:44.865Z,88280.94
2022-10-05T03:02:44.219Z,88282.78
2022-10-05T03:05:20.687Z,88280.50
2022-10-05T03:08:12.058Z,88276.03
2022-10-05T03:10:56.800Z,88273.09
2022-10-05T03:14:06.861Z,88272.75
2022-10-05T03:17:17.999Z,88270.28
2022-10-05T03:20:25.091Z,88263.81
2022-10-05T03:23:01.267Z,88261.84
2022-10-05T03:26:02.525Z,88255.88
2022-10-05T03:28:56.257Z,88263.91
2022-10-05T03:31:41.198Z,88260.97
2022-10-05T03:34:12.421Z,88258.25
2022-10-05T03:37:11.282Z,88260.38
2022-10-05T03:40:08.432Z,88254.47
2022-10-05T03:42:54.673Z,88261.56
2022-10-05T03:45:46.823Z,88261.69
2022-10-05T03:48:34.729Z,88266.16
2022-10-05T03:51:10.120Z,88269.09
2022-10-05T03:54:22.496Z,88270.16
2022-10-05T03:57:15.773Z,88268.66
2022-10-05T04:00:17.558Z,88270.50
2022-10-05T04:03:15.634Z,88270.50
2022-10-05T04:06:03.314Z,88282.81
2022-10-05T04:08:56.528Z,88277.81
2022-10-05T04:12:05.728Z,88285.19
2022-10-05T04:14:44.766Z,88275.38
2022-10-05T04:17:29.530Z,88274.28
2022-10-05T04:20:06.907Z,88273.38
2022-10-05T04:22:48.603Z,88274.16
2022-10-05T04:25:35.204Z,88266.16
2022-10-05T04:28:15.389Z,88272.16
2022-10-05T04:30:48.766Z,88271.09
2022-10-05T04:33:16.053Z,88271.41
2022-10-05T04:36:01.964Z,88278.50
2022-10-05T04:38:59.581Z,88280.34
2022-10-05T04:41:42.343Z,88276.56
2022-10-05T04:44:43.911Z,88278.84
2022-10-05T04:47:23.449Z,88283.31
2022-10-05T04:50:07.846Z,88282.56
2022-10-05T04:53:18.629Z,88286.25
2022-10-05T04:56:03.785Z,88281.34
2022-10-05T04:58:42.525Z,88286.13
2022-10-05T05:01:41.112Z,88280.44
2022-10-05T05:04:36.601Z,88281.53
2022-10-05T05:07:22.737Z,88289.38
2022-10-05T05:10:24.246Z,88285.03
2022-10-05T05:13:07.132Z,88293.78
2022-10-05T05:15:57.643Z,88292.69
2022-10-05T05:18:46.398Z,88289.00
2022-10-05T05:21:40.071Z,88290.09
2022-10-05T05:24:34.870Z,88291.59
2022-10-05T05:27:22.530Z,88290.09
2022-10-05T05:30:11.609Z,88290.09
2022-10-05T05:33:15.783Z,88301.19
2022-10-05T05:35:57.572Z,88292.13
2022-10-05T05:38:58.254Z,88296.91
2022-10-05T05:42:04.276Z,88297.84
2022-10-05T05:44:43.781Z,88301.25
2022-10-05T05:47:22.091Z,88299.69
2022-10-05T05:50:05.591Z,88303.09
2022-10-05T05:52:46.143Z,88303.75
2022-10-05T05:55:19.764Z,88303.25
2022-10-05T05:58:00.640Z,88305.59
2022-10-05T06:00:47.343Z,88300.66
2022-10-05T06:03:23.884Z,88306.66
2022-10-05T06:05:59.813Z,88310.66
2022-10-05T06:08:47.353Z,88312.66
2022-10-05T06:11:58.316Z,88318.66
2022-10-05T06:14:44.708Z,88308.06
2022-10-05T06:17:39.153Z,88310.03
2022-10-05T06:20:35.811Z,88307.88
2022-10-05T06:23:14.005Z,88312.78
2022-10-05T06:26:17.629Z,88308.91
2022-10-05T06:28:55.849Z,88312.69
2022-10-05T06:31:29.102Z,88310.59
2022-10-05T06:34:41.850Z,88306.50
2022-10-05T06:37:41.084Z,88309.63
2022-10-05T06:40:38.962Z,88311.53
2022-10-05T06:43:54.387Z,88310.03
2022-10-05T06:46:52.171Z,88305.91
2022-10-05T06:49:42.481Z,88299.28
2022-10-05T06:52:26.549Z,88309.00
2022-10-05T06:55:28.750Z,88315.06
2022-10-05T06:58:26.077Z,88306.75
2022-10-05T07:01:07.974Z,88304.16
2022-10-05T07:03:58.103Z,88303.72
2022-10-05T07:07:02.276Z,88304.47
2022-10-05T07:10:09.330Z,88303.38
2022-10-05T07:13:26.825Z,88305.34
2022-10-05T07:16:32.833Z,88303.13
2022-10-05T07:19:18.812Z,88309.44
2022-10-05T07:22:40.051Z,88309.53
2022-10-05T07:25:44.770Z,88312.78
2022-10-05T07:28:51.120Z,88309.06
2022-10-05T07:31:56.764Z,88305.94
2022-10-05T07:34:40.532Z,88305.13
2022-10-05T07:37:45.027Z,88302.13
2022-10-05T07:40:26.949Z,88294.09
2022-10-05T07:43:13.541Z,88297.34
2022-10-05T07:46:07.178Z,88290.72
2022-10-05T07:48:52.165Z,88287.59
2022-10-05T07:51:44.383Z,88293.91
2022-10-05T07:54:45.044Z,88297.97
2022-10-05T07:57:31.976Z,88297.78
2022-10-05T08:00:07.489Z,88296.53
2022-10-05T08:02:40.893Z,88296.44
2022-10-05T08:05:32.797Z,88295.22
2022-10-05T08:08:31.380Z,88298.09
2022-10-05T08:11:16.020Z,88298.31
2022-10-05T08:13:58.621Z,88294.06
2022-10-05T08:16:33.848Z,88292.31
2022-10-05T08:19:48.601Z,88291.47
2022-10-05T08:22:29.500Z,88293.56
2022-10-05T08:25:03.793Z,88291.09
2022-10-05T08:27:46.962Z,88282.97
2022-10-05T08:30:16.942Z,88288.38
2022-10-05T08:33:11.456Z,88291.63
2022-10-05T08:35:46.057Z,88290.31
2022-10-05T08:38:19.833Z,88289.31
2022-10-05T08:41:15.402Z,88291.13
2022-10-05T08:44:26.967Z,88278.59
2022-10-05T08:47:15.787Z,88281.91
2022-10-05T08:50:10.483Z,88276.41
2022-10-05T08:53:21.974Z,88277.78
2022-10-05T08:56:19.048Z,88279.47
2022-10-05T08:59:02.061Z,88264.59
2022-10-05T09:02:09.078Z,88267.38
2022-10-05T09:04:48.126Z,88268.31
2022-10-05T09:07:55.540Z,88268.47
2022-10-05T09:10:31.287Z,88265.97
2022-10-05T09:14:30.916Z,88267.63
2022-10-05T09:17:25.387Z,88258.31
2022-10-05T09:19:59.870Z,88262.66
2022-10-05T09:23:20.874Z,88260.88
2022-10-05T09:26:07.432Z,88254.97
2022-10-05T09:28:49.608Z,88248.31
2022-10-05T09:32:16.786Z,88245.44
2022-10-05T09:35:15.942Z,88245.16
2022-10-05T09:38:26.840Z,88249.88
2022-10-05T09:41:43.257Z,88245.03
2022-10-05T09:44:58.852Z,88245.09
2022-10-05T09:48:21.504Z,88239.50
2022-10-05T09:51:06.407Z,88242.97
2022-10-05T09:53:46.868Z,88233.59
2022-10-05T09:59:52.894Z,88239.09
2022-10-05T10:03:05.585Z,88245.63
2022-10-05T10:06:24.119Z,88233.63
2022-10-05T10:09:23.382Z,88230.31
2022-10-05T10:12:47.924Z,88226.56
2022-10-05T10:15:53.535Z,88228.13
2022-10-05T10:18:58.036Z,88227.03
2022-10-05T10:22:18.648Z,88221.00
2022-10-05T10:25:33.970Z,88218.00
2022-10-05T10:28:37.846Z,88217.31
2022-10-05T10:31:26.075Z,88212.00
2022-10-05T10:34:23.866Z,88210.47
2022-10-05T10:36:56.821Z,88210.06
2022-10-05T10:39:53.532Z,88219.19
2022-10-05T10:42:52.393Z,88208.50
2022-10-05T10:45:28.773Z,88213.78
2022-10-05T10:48:28.903Z,88213.22
2022-10-05T10:51:49.015Z,88203.31
2022-10-05T10:54:55.965Z,88209.69
2022-10-05T10:57:45.453Z,88198.13
2022-10-05T11:01:01.557Z,88195.88
2022-10-05T11:03:46.535Z,88195.91
2022-10-05T11:06:43.543Z,88201.00
2022-10-05T11:10:12.048Z,88194.94
2022-10-05T11:13:19.485Z,88187.00
2022-10-05T11:16:18.730Z,88193.72
2022-10-05T11:19:20.794Z,88189.91
2022-10-05T11:22:07.221Z,88194.22
2022-10-05T11:25:19.381Z,88192.81
2022-10-05T11:28:15.500Z,88190.47
2022-10-05T11:30:59.297Z,88191.25
2022-10-05T11:34:04.742Z,88189.00
2022-10-05T11:37:00.148Z,88192.81
2022-10-05T11:39:52.890Z,88187.28
2022-10-05T11:42:34.875Z,88180.56
2022-10-05T11:45:20.078Z,88184.03
2022-10-05T11:48:30.948Z,88181.19
2022-10-05T11:51:32.598Z,88179.59
2022-10-05T11:54:58.780Z,88172.50
2022-10-05T11:57:52.177Z,88176.88
2022-10-05T12:01:12.498Z,88172.22
2022-10-05T12:04:09.288Z,88166.66
2022-10-05T12:07:18.156Z,88159.75
2022-10-05T12:10:26.987Z,88152.41
2022-10-05T12:13:40.043Z,88156.59
2022-10-05T12:16:20.766Z,88147.22
2022-10-05T12:19:06.022Z,88166.69
2022-10-05T12:21:49.325Z,88153.56
2022-10-05T12:24:46.403Z,88153.28
2022-10-05T12:27:27.513Z,88151.50
2022-10-05T12:30:12.268Z,88149.81
2022-10-05T12:32:54.145Z,88152.28
2022-10-05T12:36:01.013Z,88155.97
2022-10-05T12:38:44.512Z,88151.03
2022-10-05T12:41:34.669Z,88152.06
2022-10-05T12:44:57.301Z,88145.44
2022-10-05T12:47:44.819Z,88140.91
2022-10-05T12:50:31.176Z,88141.22
2022-10-05T12:53:57.584Z,88141.56
2022-10-05T12:56:57.904Z,88134.88
2022-10-05T12:59:47.553Z,88145.06
2022-10-05T13:02:45.979Z,88141.06
2022-10-05T13:05:28.048Z,88144.66
2022-10-05T13:08:20.612Z,88145.50
2022-10-05T13:11:00.019Z,88142.03
2022-10-05T13:13:44.872Z,88142.34
2022-10-05T13:16:15.498Z,88139.72
2022-10-05T13:19:23.079Z,88143.78
2022-10-05T13:22:23.700Z,88146.94
2022-10-05T13:25:09.355Z,88140.66
2022-10-05T13:27:48.258Z,88139.41
2022-10-05T13:30:22.445Z,88142.28
2022-10-05T13:33:15.465Z,88139.34
2022-10-05T13:36:04.023Z,88153.28
2022-10-05T13:38:58.866Z,88142.78
2022-10-05T13:41:32.215Z,88145.81
2022-10-05T13:44:26.056Z,88142.94
2022-10-05T13:47:07.681Z,88144.19
2022-10-05T13:50:02.237Z,88139.78
2022-10-05T13:52:56.550Z,88139.72
2022-10-05T13:56:19.882Z,88140.69
2022-10-05T13:59:30.595Z,88141.53
2022-10-05T14:02:10.275Z,88136.13
2022-10-05T14:04:49.742Z,88147.81
2022-10-05T14:07:49.076Z,88140.63
2022-10-05T14:10:41.023Z,88144.53
2022-10-05T14:13:47.406Z,88140.78
2022-10-05T14:16:24.123Z,88142.28
2022-10-05T14:19:06.439Z,88141.59
2022-10-05T14:22:07.724Z,88144.63
2022-10-05T14:24:44.012Z,88134.28
2022-10-05T14:27:28.259Z,88133.25
2022-10-05T14:30:01.588Z,88141.97
2022-10-05T14:32:47.832Z,88137.03
2022-10-05T14:35:18.279Z,88139.41
2022-10-05T14:37:54.233Z,88137.75
2022-10-05T14:40:34.030Z,88137.41
2022-10-05T14:43:16.761Z,88139.25
2022-10-05T14:46:03.086Z,88137.13
2022-10-05T14:48:43.974Z,88141.47
2022-10-05T14:51:25.889Z,88133.22
2022-10-05T14:54:29.255Z,88138.75
2022-10-05T14:57:23.860Z,88138.66
2022-10-05T15:00:18.326Z,88142.81
2022-10-05T15:03:33.231Z,88148.44
2022-10-05T15:06:03.239Z,88137.63
2022-10-05T15:08:48.837Z,88142.31
2022-10-05T15:11:25.137Z,88145.09
2022-10-05T15:13:55.219Z,88155.06
2022-10-05T15:16:36.339Z,88150.84
2022-10-05T15:19:37.486Z,88150.38
2022-10-05T15:22:31.643Z,88164.47
2022-10-05T15:25:22.132Z,88151.44
2022-10-05T15:28:04.530Z,88160.63
2022-10-05T15:30:40.142Z,88161.50
2022-10-05T15:33:59.761Z,88167.81
2022-10-05T15:36:41.227Z,88167.19
2022-10-05T15:39:25.774Z,88163.69
2022-10-05T15:42:05.334Z,88166.66
2022-10-05T15:44:56.103Z,88166.66
2022-10-05T15:47:52.594Z,88170.44
2022-10-05T15:50:28.187Z,88168.47
2022-10-05T15:53:14.698Z,88169.78
2022-10-05T15:56:03.807Z,88161.56
2022-10-05T15:58:43.307Z,88169.38
2022-10-05T16:01:23.973Z,88175.31
2022-10-05T16:04:29.233Z,88173.28
2022-10-05T16:07:02.508Z,88179.13
2022-10-05T16:09:44.984Z,88182.47
2022-10-05T16:12:56.027Z,88189.59
2022-10-05T16:15:49.960Z,88181.09
2022-10-05T16:18:37.265Z,88185.53
2022-10-05T16:21:35.593Z,88181.25
2022-10-05T16:24:44.248Z,88190.66
2022-10-05T16:27:47.800Z,88194.66
2022-10-05T16:30:24.354Z,88212.03
2022-10-05T16:33:12.317Z,88208.81
2022-10-05T16:36:16.211Z,88213.91
2022-10-05T16:39:00.621Z,88217.47
2022-10-05T16:42:01.352Z,88218.78
2022-10-05T16:44:28.599Z,88220.34
2022-10-05T16:47:37.448Z,88217.09
2022-10-05T16:50:13.477Z,88231.31
2022-10-05T16:52:47.847Z,88231.00
2022-10-05T16:55:29.722Z,88243.28
2022-10-05T16:58:02.239Z,88243.41
2022-10-05T17:00:59.715Z,88248.38
2022-10-05T17:04:16.626Z,88255.66
2022-10-05T17:07:06.819Z,88256.84
2022-10-05T17:10:15.769Z,88269.09
2022-10-05T17:12:51.287Z,88268.78
2022-10-05T17:15:36.666Z,88270.34
2022-10-05T17:18:32.607Z,88271.91
2022-10-05T17:21:48.455Z,88282.59
2022-10-05T17:24:33.276Z,88281.84
2022-10-05T17:27:31.433Z,88286.44
2022-10-05T17:30:51.188Z,88290.97
2022-10-05T17:33:33.327Z,88302.00
2022-10-05T17:36:00.398Z,88306.19
2022-10-05T17:38:33.502Z,88303.13
2022-10-05T17:41:00.623Z,88304.28
2022-10-05T17:43:30.406Z,88299.72
2022-10-05T17:46:04.232Z,88304.66
2022-10-05T17:48:49.393Z,88304.66
2022-10-05T17:51:30.543Z,88302.00
2022-10-05T17:53:58.556Z,88311.47
2022-10-05T17:56:25.798Z,88305.38
2022-10-05T17:58:59.667Z,88311.84
2022-10-05T18:01:40.754Z,88315.22
2022-10-05T18:04:13.866Z,88313.31
2022-10-05T18:07:04.702Z,88316.28
2022-10-05T18:09:36.365Z,88318.94
2022-10-05T18:12:18.996Z,88313.97
2022-10-05T18:15:07.451Z,88323.06
2022-10-05T18:17:37.796Z,88327.56
2022-10-05T18:20:24.170Z,88325.66
2022-10-05T18:22:53.544Z,88324.88
2022-10-05T18:25:39.661Z,88330.16
2022-10-05T18:28:12.981Z,88327.50
2022-10-05T18:31:01.871Z,88334.66
2022-10-05T18:34:05.499Z,88332.38
2022-10-05T18:37:10.492Z,88336.09
2022-10-05T18:40:27.471Z,88336.44
2022-10-05T18:43:29.092Z,88343.97
2022-10-05T18:46:33.264Z,88345.84
2022-10-05T18:49:30.253Z,88347.72
2022-10-05T18:52:26.184Z,88344.25
2022-10-05T18:55:30.206Z,88347.59
2022-10-05T18:58:31.606Z,88346.75
2022-10-05T19:01:26.566Z,88352.00
2022-10-05T19:04:13.151Z,88356.88
2022-10-05T19:07:24.829Z,88357.25
2022-10-05T19:10:49.924Z,88361.69
2022-10-05T19:13:32.341Z,88358.25
2022-10-05T19:16:22.519Z,88366.56
2022-10-05T19:19:11.992Z,88364.25
2022-10-05T19:22:16.420Z,88365.34
2022-10-05T19:25:39.652Z,88369.44
2022-10-05T19:28:46.000Z,88376.56
2022-10-05T19:31:13.296Z,88372.75
2022-10-05T19:34:22.458Z,88375.75
2022-10-05T19:37:04.409Z,88375.66
2022-10-05T19:40:15.641Z,88379.78
2022-10-05T19:42:58.027Z,88379.31
2022-10-05T19:45:29.441Z,88378.22
2022-10-05T19:48:33.355Z,88386.06
2022-10-05T19:51:02.540Z,88383.06
2022-10-05T19:53:45.448Z,88383.75
2022-10-05T19:56:24.558Z,88386.00
2022-10-05T19:58:53.821Z,88384.84
2022-10-05T20:01:31.812Z,88382.19
2022-10-05T20:03:59.068Z,88385.94
2022-10-05T20:06:26.889Z,88385.91
2022-10-05T20:08:57.181Z,88382.47
2022-10-05T20:11:24.777Z,88380.22
2022-10-05T20:13:54.994Z,88382.47
2022-10-05T20:16:32.390Z,88380.97
2022-10-05T20:19:00.033Z,88384.41
2022-10-05T20:21:39.082Z,88390.47
2022-10-05T20:24:10.955Z,88391.66
2022-10-05T20:27:01.248Z,88393.44
2022-10-05T20:29:35.116Z,88396.00
2022-10-05T20:32:31.501Z,88391.66
2022-10-05T20:34:58.711Z,88404.47
2022-10-05T20:37:26.053Z,88396.78
2022-10-05T20:39:53.232Z,88398.59
2022-10-05T20:42:21.643Z,88393.22
2022-10-05T20:44:52.911Z,88403.03
2022-10-05T20:47:23.447Z,88399.25
2022-10-05T20:49:50.699Z,88410.53
2022-10-05T20:52:17.867Z,88408.56
2022-10-05T20:57:13.621Z,88415.25
2022-10-05T20:59:40.840Z,88416.00
2022-10-05T21:02:08.034Z,88420.09
2022-10-05T21:04:40.238Z,88416.28
2022-10-05T21:07:08.689Z,88423.00
2022-10-05T21:09:35.866Z,88423.31
2022-10-05T21:12:03.137Z,88419.13
2022-10-05T21:14:30.294Z,88421.34
2022-10-05T21:16:57.513Z,88425.06
2022-10-05T21:19:24.722Z,88418.91
2022-10-05T21:21:52.306Z,88415.41
2022-10-05T21:24:19.484Z,88416.44
2022-10-05T21:26:46.663Z,88417.22
2022-10-05T21:29:13.851Z,88416.38
2022-10-05T21:31:41.738Z,88415.56
2022-10-05T21:34:09.351Z,88416.22
2022-10-05T21:36:36.590Z,88413.94
2022-10-05T21:39:04.062Z,88410.13
2022-10-05T21:41:31.251Z,88416.16
2022-10-05T21:43:58.723Z,88414.09
2022-10-05T21:46:26.279Z,88414.09
2022-10-05T21:48:54.707Z,88413.56
2022-10-05T21:51:26.700Z,88416.56
2022-10-05T21:54:02.430Z,88416.16
2022-10-05T21:56:35.800Z,88414.22
2022-10-05T21:59:09.008Z,88408.13
2022-10-05T22:01:36.185Z,88418.56
2022-10-05T22:04:07.137Z,88415.53
2022-10-05T22:06:35.990Z,88420.03
2022-10-05T22:09:04.564Z,88413.56
2022-10-05T22:11:32.941Z,88415.06
2022-10-05T22:14:00.587Z,88409.66
2022-10-05T22:16:28.536Z,88414.50
2022-10-05T22:18:56.124Z,88409.50
2022-10-05T22:21:23.520Z,88408.25
2022-10-05T22:23:50.782Z,88411.25
2022-10-05T22:26:22.254Z,88407.84
2022-10-05T22:28:52.472Z,88413.84
2022-10-05T22:31:19.897Z,88411.78
2022-10-05T22:33:47.107Z,88409.16
2022-10-05T22:36:14.334Z,88409.53
2022-10-05T22:38:41.471Z,88400.41
2022-10-05T22:41:14.672Z,88395.84
2022-10-05T22:43:41.792Z,88395.78
2022-10-05T22:46:13.778Z,88401.75
2022-10-05T22:48:41.109Z,88405.84
2022-10-05T22:51:08.916Z,88403.22
2022-10-05T22:53:36.387Z,88403.53
2022-10-05T22:56:12.647Z,88400.03
2022-10-05T22:58:41.829Z,88394.66
2022-10-05T23:01:13.388Z,88395.34
2022-10-05T23:03:41.354Z,88398.28
2022-10-05T23:06:18.255Z,88395.16
2022-10-05T23:08:46.965Z,88397.38
2022-10-05T23:11:21.029Z,88398.47
2022-10-05T23:13:48.299Z,88395.09
2022-10-05T23:16:21.741Z,88403.31
2022-10-05T23:18:51.175Z,88401.72
2022-10-05T23:21:21.706Z,88400.22
2022-10-05T23:23:50.126Z,88397.22
2022-10-05T23:26:21.330Z,88401.03
2022-10-05T23:28:49.555Z,88396.53
2022-10-05T23:31:21.372Z,88401.81
2022-10-05T23:33:49.225Z,88401.03
2022-10-05T23:36:22.622Z,88400.97
2022-10-05T23:38:50.482Z,88403.94
2022-10-05T23:41:18.508Z,88403.88
2022-10-05T23:43:46.155Z,88409.06
2022-10-05T23:46:13.850Z,88415.78
2022-10-05T23:48:41.145Z,88407.81
2022-10-05T23:51:11.759Z,88411.47
2022-10-05T23:53:38.998Z,88415.16
2022-10-05T23:56:06.656Z,88413.97
2022-10-05T23:58:34.171Z,88415.34
